Latest Weather Observations for Ocean Reef

IDW60901

Issued at 3:51 pm WST Saturday 5 September 2015 (issued every 10 minutes, with the page automatically refreshed every 10 minutes)

About weather observations | Map of Perth area stations | Latest observations for Perth area | Other Formats
Station Details ID: 009214 Name: OCEAN REEF Lat: -31.76 Lon: 115.73 Height: 10.0 m
Data from the previous 72 hours. | See also: Recent months at Ocean Reef
Date/Time
WST
Tmp

°C
App
Tmp
°C
Dew
Point
°C
Rel
Hum
%
Delta-T

°C
Wind Press
QNH
hPa
Press
MSL
hPa
Rain
since
9 am
mm
Dir
 
Spd
km/h
Gust
km/h
Spd
kts
Gust
kts
05/03:30pm - - - - - SSW 30 35 16 19 - - -
05/03:00pm - - - - - SSW 33 39 18 21 - - -
05/02:30pm - - - - - SSW 30 35 16 19 - - -
05/02:00pm - - - - - S 26 33 14 18 - - -
05/01:30pm - - - - - S 32 37 17 20 - - -
05/01:00pm - - - - - SSW 43 52 23 28 - - -
05/12:30pm - - - - - S 30 35 16 19 - - -
05/12:00pm - - - - - SW 35 48 19 26 - - -
05/11:57am - - - - - SW 33 48 18 26 - - -
05/11:30am - - - - - WSW 32 39 17 21 - - -
05/11:00am - - - - - SW 33 39 18 21 - - -
05/10:30am - - - - - SW 33 39 18 21 - - -
05/10:00am - - - - - WSW 32 35 17 19 - - -
05/09:30am - - - - - WSW 30 33 16 18 - - -
05/09:00am - - - - - WSW 30 35 16 19 - - -
05/08:30am - - - - - WSW 33 37 18 20 - - -
05/08:00am - - - - - WSW 35 41 19 22 - - -
05/07:30am - - - - - WSW 35 44 19 24 - - -
05/07:00am - - - - - WSW 33 41 18 22 - - -
05/06:30am - - - - - WSW 37 43 20 23 - - -
05/06:00am - - - - - WSW 33 39 18 21 - - -
05/05:30am - - - - - WSW 33 37 18 20 - - -
05/05:00am - - - - - WSW 30 35 16 19 - - -
05/04:30am - - - - - WSW 33 41 18 22 - - -
05/04:00am - - - - - WSW 32 35 17 19 - - -
05/03:30am - - - - - WSW 32 37 17 20 - - -
05/03:00am - - - - - SW 28 35 15 19 - - -
05/02:30am - - - - - SW 30 41 16 22 - - -
05/02:29am - - - - - SW 30 41 16 22 - - -
05/02:00am - - - - - SW 17 22 9 12 - - -
05/01:30am - - - - - SW 26 33 14 18 - - -
05/01:00am - - - - - SW 32 41 17 22 - - -
05/12:30am - - - - - SW 32 41 17 22 - - -
05/12:25am - - - - - SW 28 41 15 22 - - -
05/12:00am - - - - - S 7 9 4 5 - - -
 
Date/Time
WST
Tmp

°C
App
Tmp
°C
Dew
Point
°C
Rel
Hum
%
Delta-T

°C
Wind Press
QNH
hPa
Press
MSL
hPa
Rain
since
9 am
mm
Dir
 
Spd
km/h
Gust
km/h
Spd
kts
Gust
kts
04/11:30pm - - - - - SW 11 13 6 7 - - -
04/11:00pm - - - - - SW 26 30 14 16 - - -
04/10:34pm - - - - - W 28 48 15 26 - - -
04/10:33pm - - - - - W 28 48 15 26 - - -
04/10:30pm - - - - - W 26 32 14 17 - - -
04/10:00pm - - - - - W 20 26 11 14 - - -
04/09:30pm - - - - - NNW 33 39 18 21 - - -
04/09:00pm - - - - - NW 35 41 19 22 - - -
04/08:30pm - - - - - NNW 35 39 19 21 - - -
04/08:00pm - - - - - NNW 35 41 19 22 - - -
04/07:30pm - - - - - NNW 35 39 19 21 - - -
04/07:00pm - - - - - NW 35 39 19 21 - - -
04/06:30pm - - - - - NW 35 41 19 22 - - -
04/06:00pm - - - - - NW 32 37 17 20 - - -
04/05:30pm - - - - - NNW 32 39 17 21 - - -
04/05:00pm - - - - - NNW 33 37 18 20 - - -
04/04:30pm - - - - - NNW 32 39 17 21 - - -
04/04:00pm - - - - - NNW 30 33 16 18 - - -
04/03:30pm - - - - - NNW 28 35 15 19 - - -
04/03:00pm - - - - - NNW 30 33 16 18 - - -
04/02:30pm - - - - - NW 30 35 16 19 - - -
04/02:00pm - - - - - NW 32 35 17 19 - - -
04/01:30pm - - - - - NW 30 35 16 19 - - -
04/01:00pm - - - - - NW 28 32 15 17 - - -
04/12:30pm - - - - - NW 28 32 15 17 - - -
04/12:00pm - - - - - NW 28 32 15 17 - - -
04/11:30am - - - - - NW 28 32 15 17 - - -
04/11:00am - - - - - NW 24 28 13 15 - - -
04/10:30am - - - - - WNW 20 26 11 14 - - -
04/10:00am - - - - - WNW 24 28 13 15 - - -
04/09:30am - - - - - WNW 26 32 14 17 - - -
04/09:00am - - - - - NNW 17 22 9 12 - - -
04/08:30am - - - - - N 15 17 8 9 - - -
04/08:00am - - - - - N 13 17 7 9 - - -
04/07:30am - - - - - NNE 13 15 7 8 - - -
04/07:00am - - - - - NNE 13 17 7 9 - - -
04/06:30am - - - - - NE 13 17 7 9 - - -
04/06:00am - - - - - NNE 13 17 7 9 - - -
04/05:30am - - - - - N 11 13 6 7 - - -
04/05:00am - - - - - NNE 7 9 4 5 - - -
04/04:30am - - - - - N 11 13 6 7 - - -
04/04:00am - - - - - N 15 19 8 10 - - -
04/03:30am - - - - - NNE 15 19 8 10 - - -
04/03:00am - - - - - NNE 17 19 9 10 - - -
04/02:30am - - - - - NNE 15 19 8 10 - - -
04/02:00am - - - - - NE 15 17 8 9 - - -
04/01:30am - - - - - ENE 6 11 3 6 - - -
04/01:00am - - - - - ENE 17 19 9 10 - - -
04/12:30am - - - - - ENE 19 20 10 11 - - -
04/12:00am - - - - - ENE 19 20 10 11 - - -
 
Date/Time
WST
Tmp

°C
App
Tmp
°C
Dew
Point
°C
Rel
Hum
%
Delta-T

°C
Wind Press
QNH
hPa
Press
MSL
hPa
Rain
since
9 am
mm
Dir
 
Spd
km/h
Gust
km/h
Spd
kts
Gust
kts
03/11:30pm - - - - - E 13 15 7 8 - - -
03/11:00pm - - - - - ESE 11 11 6 6 - - -
03/10:30pm - - - - - SE 11 11 6 6 - - -
03/10:00pm - - - - - SE 13 13 7 7 - - -
03/09:30pm - - - - - SE 13 13 7 7 - - -
03/09:00pm - - - - - SSE 9 11 5 6 - - -
03/08:30pm - - - - - SE 6 7 3 4 - - -
03/08:00pm - - - - - ESE 11 11 6 6 - - -
03/07:30pm - - - - - SE 11 13 6 7 - - -
03/07:00pm - - - - - SE 13 13 7 7 - - -
03/06:30pm - - - - - SSE 13 17 7 9 - - -
03/06:00pm - - - - - SSE 20 26 11 14 - - -
03/05:30pm - - - - - S 28 33 15 18 - - -
03/05:00pm - - - - - S 28 32 15 17 - - -
03/04:30pm - - - - - S 20 26 11 14 - - -
03/04:00pm - - - - - S 22 28 12 15 - - -
03/03:30pm - - - - - SSW 19 24 10 13 - - -
03/03:00pm - - - - - SW 17 20 9 11 - - -
03/02:30pm - - - - - SSW 15 20 8 11 - - -
03/02:00pm - - - - - SW 9 17 5 9 - - -
03/01:30pm - - - - - SE 11 17 6 9 - - -
03/01:00pm - - - - - ENE 13 22 7 12 - - -
03/12:30pm - - - - - ENE 15 24 8 13 - - -
03/12:00pm - - - - - NE 19 26 10 14 - - -
03/11:30am - - - - - NE 20 32 11 17 - - -
03/11:00am - - - - - NE 20 30 11 16 - - -
03/10:30am - - - - - ENE 24 30 13 16 - - -
03/10:00am - - - - - ENE 24 32 13 17 - - -
03/09:30am - - - - - ENE 28 39 15 21 - - -
03/09:00am - - - - - ENE 24 37 13 20 - - -
03/08:30am - - - - - E 22 35 12 19 - - -
03/08:00am - - - - - E 24 35 13 19 - - -
03/07:30am - - - - - E 26 35 14 19 - - -
03/07:00am - - - - - E 24 33 13 18 - - -
03/06:30am - - - - - E 20 28 11 15 - - -
03/06:00am - - - - - E 19 26 10 14 - - -
03/05:30am - - - - - E 17 26 9 14 - - -
03/05:00am - - - - - E 15 20 8 11 - - -
03/04:30am - - - - - E 19 26 10 14 - - -
03/04:00am - - - - - E 19 26 10 14 - - -
03/03:30am - - - - - E 19 24 10 13 - - -
03/03:00am - - - - - ESE 15 20 8 11 - - -
03/02:30am - - - - - ESE 15 19 8 10 - - -
03/02:00am - - - - - ESE 17 22 9 12 - - -
03/01:30am - - - - - ESE 15 19 8 10 - - -
03/01:00am - - - - - ESE 15 19 8 10 - - -
03/12:30am - - - - - ESE 13 19 7 10 - - -
03/12:00am - - - - - SE 13 17 7 9 - - -
 
Date/Time
WST
Tmp

°C
App
Tmp
°C
Dew
Point
°C
Rel
Hum
%
Delta-T

°C
Wind Press
QNH
hPa
Press
MSL
hPa
Rain
since
9 am
mm
Dir
 
Spd
km/h
Gust
km/h
Spd
kts
Gust
kts
02/11:30pm - - - - - SE 13 17 7 9 - - -
02/11:00pm - - - - - SE 11 13 6 7 - - -
02/10:30pm - - - - - SSE 9 11 5 6 - - -
02/10:00pm - - - - - SSE 9 9 5 5 - - -
02/09:30pm - - - - - SE 9 13 5 7 - - -
02/09:00pm - - - - - SE 9 13 5 7 - - -
02/08:30pm - - - - - ESE 9 11 5 6 - - -
02/08:00pm - - - - - E 11 15 6 8 - - -
02/07:30pm - - - - - E 15 20 8 11 - - -
02/07:00pm - - - - - E 13 19 7 10 - - -
02/06:30pm - - - - - E 13 17 7 9 - - -
02/06:00pm - - - - - E 13 17 7 9 - - -
02/05:30pm - - - - - E 11 17 6 9 - - -
02/05:00pm - - - - - E 13 19 7 10 - - -
02/04:30pm - - - - - E 13 19 7 10 - - -
02/04:00pm - - - - - E 13 15 7 8 - - -

Latest Capital City Observations: Canberra | Sydney | Melbourne | Brisbane | Adelaide | Perth | Hobart | Darwin

Other Formats:

Comma delimited format used in spreadsheet applications
http://www.bom.gov.au/fwo/IDW60901/IDW60901.94607.axf

JavaScript Object Notation format (JSON) in row-major order
http://www.bom.gov.au/fwo/IDW60901/IDW60901.94607.json